createdAt,value
2023-03-31T08:53:05.624Z,4.67
2023-03-31T08:55:44.927Z,4.36
2023-03-31T09:00:48.156Z,4.10
2023-03-31T09:03:24.406Z,4.07
2023-03-31T09:06:01.216Z,3.89
2023-03-31T11:23:42.069Z,3.96
2023-03-31T11:26:16.616Z,3.74
2023-03-31T11:29:04.644Z,3.96
2023-03-31T11:31:43.395Z,3.88
2023-03-31T11:34:31.848Z,4.16
2023-03-31T11:37:05.071Z,4.00
2023-03-31T11:39:50.338Z,3.48
2023-03-31T11:42:29.350Z,3.48
2023-03-31T11:45:00.344Z,3.26
2023-03-31T11:47:31.149Z,2.29
2023-03-31T11:50:21.622Z,2.71
2023-03-31T11:52:56.982Z,3.11
2023-03-31T11:55:23.678Z,2.86
2023-03-31T11:58:04.997Z,2.72
2023-03-31T12:00:50.411Z,2.11
2023-03-31T12:03:24.133Z,2.14
2023-03-31T12:05:56.650Z,2.05
2023-03-31T12:08:33.735Z,1.97
2023-03-31T12:11:08.430Z,1.78
2023-03-31T12:14:04.042Z,92.49
2023-03-31T12:16:40.162Z,327.19
2023-03-31T12:19:17.482Z,151.86
2023-03-31T12:22:00.490Z,8.15
2023-03-31T12:24:27.271Z,227.31
2023-03-31T12:27:02.498Z,379.98
2023-03-31T12:29:57.142Z,304.89
2023-03-31T12:32:27.136Z,220.45
2023-03-31T12:35:06.869Z,160.43
2023-03-31T12:38:10.033Z,112.90
2023-03-31T12:41:08.401Z,69.25
2023-03-31T12:44:02.264Z,42.28
2023-03-31T12:46:40.817Z,23.88
2023-03-31T12:49:28.860Z,13.85
2023-03-31T12:51:58.304Z,8.36
2023-03-31T12:54:52.557Z,3.45
2023-03-31T12:57:21.106Z,211.26
2023-03-31T13:00:07.732Z,224.51
2023-03-31T13:02:34.559Z,167.12
2023-03-31T13:05:15.472Z,125.74
2023-03-31T13:07:42.265Z,90.05
2023-03-31T13:10:14.984Z,67.44
2023-03-31T13:12:41.862Z,45.56
2023-03-31T13:15:13.493Z,31.03
2023-03-31T13:17:40.385Z,19.23
2023-03-31T13:20:38.839Z,12.74
2023-03-31T13:23:12.198Z,7.34
2023-03-31T13:25:44.231Z,4.61
2023-03-31T13:28:23.885Z,2.58
2023-03-31T13:31:09.224Z,143.97
2023-03-31T13:33:47.465Z,198.66
2023-03-31T13:36:32.613Z,132.44
2023-03-31T13:39:10.462Z,96.36
2023-03-31T13:41:51.376Z,70.87
2023-03-31T13:44:39.608Z,53.51
2023-03-31T13:47:34.127Z,36.15
2023-03-31T13:50:13.278Z,24.79
2023-03-31T13:53:19.644Z,19.23
2023-03-31T13:55:46.272Z,12.34
2023-03-31T13:58:35.279Z,9.81
2023-03-31T14:01:21.734Z,6.45
2023-03-31T14:03:57.716Z,49.81
2023-03-31T14:06:45.260Z,143.46
2023-03-31T14:09:22.464Z,110.88
2023-03-31T14:11:49.185Z,85.63
2023-03-31T14:14:17.083Z,67.71
2023-03-31T14:16:48.777Z,56.14
2023-03-31T14:19:52.774Z,44.20
2023-03-31T14:22:56.608Z,30.51
2023-03-31T14:26:01.402Z,19.67
2023-03-31T14:28:37.077Z,13.57
2023-03-31T14:31:15.325Z,9.94
2023-03-31T14:34:15.537Z,7.28
2023-03-31T14:36:46.190Z,3.50
